Time;durP1;ratioP1;P1;durP2;ratioP2;P2;SDS_P1;SDS_P2;PMS_P1;PMS_P2;Temp;Humidity;BMP_temperature;BMP_pressure;BME280_temperature;BME280_humidity;BME280_pressure;Samples;Min_cycle;Max_cycle;Signal;HPM_P1;HPM_P2
2023/05/13 00:01:24;;;;;;;10.10;8.25;;;11.80;99.90;;;;;;5146397;27;20431;-37
2023/05/13 00:03:50;;;;;;;9.77;8.88;;;11.80;99.90;;;;;;5146125;27;20062;-38
2023/05/13 00:06:16;;;;;;;9.32;8.20;;;11.80;99.90;;;;;;5152146;27;20046;-37
2023/05/13 00:08:41;;;;;;;11.02;8.80;;;11.70;99.90;;;;;;5141722;27;20034;-37
2023/05/13 00:11:07;;;;;;;11.95;9.48;;;11.70;99.90;;;;;;5153297;27;20071;-36
2023/05/13 00:13:33;;;;;;;9.80;8.80;;;11.70;99.90;;;;;;5150201;27;20388;-38
2023/05/13 00:15:59;;;;;;;10.18;9.18;;;11.70;99.90;;;;;;5145624;27;20048;-38
2023/05/13 00:18:25;;;;;;;10.68;8.98;;;11.60;99.90;;;;;;5134728;27;20031;-37
2023/05/13 00:20:51;;;;;;;9.80;8.88;;;11.60;99.90;;;;;;5143942;27;20428;-37
2023/05/13 00:23:17;;;;;;;10.90;9.90;;;11.60;99.90;;;;;;5146375;27;20038;-38
2023/05/13 00:25:45;;;;;;;10.05;9.25;;;11.60;99.90;;;;;;5144128;27;20450;-35
2023/05/13 00:28:13;;;;;;;11.30;9.30;;;11.50;99.90;;;;;;5167550;27;20091;-37
2023/05/13 00:30:41;;;;;;;10.65;9.65;;;11.50;99.90;;;;;;5143496;27;20034;-37
2023/05/13 00:33:07;;;;;;;11.25;10.13;;;11.50;99.90;;;;;;5143880;27;20121;-37
2023/05/13 00:35:33;;;;;;;11.90;9.70;;;11.50;99.90;;;;;;5125137;27;20047;-36
2023/05/13 00:37:58;;;;;;;11.50;10.43;;;11.50;99.90;;;;;;5155291;27;20118;-36
2023/05/13 00:40:24;;;;;;;10.85;9.73;;;11.50;99.90;;;;;;5142603;27;20465;-37
2023/05/13 00:42:50;;;;;;;11.43;10.18;;;11.50;99.90;;;;;;5142854;27;20117;-39
2023/05/13 00:45:17;;;;;;;10.57;9.57;;;11.40;99.90;;;;;;5137481;27;20035;-37
2023/05/13 00:47:43;;;;;;;10.85;9.75;;;11.40;99.90;;;;;;5148812;27;20030;-37
2023/05/13 00:50:10;;;;;;;11.50;10.30;;;11.40;99.90;;;;;;5147918;27;20121;-37
2023/05/13 00:52:38;;;;;;;10.63;9.38;;;11.30;99.90;;;;;;5147745;27;20039;-37
2023/05/13 00:55:04;;;;;;;10.52;9.40;;;11.30;99.90;;;;;;5143563;27;20097;-38
2023/05/13 00:57:30;;;;;;;13.52;10.13;;;11.30;99.90;;;;;;5151000;27;20517;-39
2023/05/13 00:59:56;;;;;;;11.05;9.95;;;11.30;99.90;;;;;;5164915;27;20113;-37
2023/05/13 01:02:35;;;;;;;12.30;10.85;;;11.20;99.90;;;;;;5141929;27;20034;-40
2023/05/13 01:05:29;;;;;;;13.15;11.05;;;11.30;99.90;;;;;;5142508;27;20064;-35
2023/05/13 01:08:09;;;;;;;9.80;8.80;;;11.20;99.90;;;;;;5142676;27;20038;-36
2023/05/13 01:10:43;;;;;;;11.23;10.23;;;11.20;99.90;;;;;;5138446;27;20046;-36
2023/05/13 01:13:11;;;;;;;13.10;10.82;;;11.20;99.90;;;;;;5146925;27;20057;-36
2023/05/13 01:15:44;;;;;;;11.70;10.45;;;11.20;99.90;;;;;;5142435;27;20117;-36
2023/05/13 01:18:14;;;;;;;11.05;9.95;;;11.10;99.90;;;;;;5151145;27;20109;-36
2023/05/13 01:20:41;;;;;;;11.02;9.93;;;11.10;99.90;;;;;;5151303;27;20057;-37
2023/05/13 01:23:11;;;;;;;12.25;10.98;;;11.10;99.90;;;;;;5158084;27;20034;-38
2023/05/13 01:25:38;;;;;;;11.73;10.52;;;11.10;99.90;;;;;;5150068;27;20034;-38
2023/05/13 01:28:05;;;;;;;14.45;10.48;;;11.00;99.90;;;;;;5151457;27;20097;-36
2023/05/13 01:30:31;;;;;;;11.18;10.07;;;11.00;99.90;;;;;;5145432;27;20034;-36
2023/05/13 01:32:57;;;;;;;12.05;10.27;;;11.00;99.90;;;;;;5164225;27;20131;-36
2023/05/13 01:35:25;;;;;;;11.95;10.77;;;11.00;99.90;;;;;;5144375;27;20030;-37
2023/05/13 01:37:52;;;;;;;11.77;10.45;;;10.90;99.90;;;;;;5146945;27;20072;-37
2023/05/13 01:40:18;;;;;;;12.00;10.75;;;10.90;99.90;;;;;;5147121;27;20514;-37
2023/05/13 01:42:43;;;;;;;12.23;10.93;;;10.80;99.90;;;;;;5151829;27;20074;-36
2023/05/13 01:45:10;;;;;;;12.48;11.23;;;10.80;99.90;;;;;;5147476;27;20066;-38
2023/05/13 01:47:35;;;;;;;12.10;10.45;;;10.80;99.90;;;;;;5145624;27;20035;-38
2023/05/13 01:50:01;;;;;;;11.77;10.57;;;10.80;99.90;;;;;;5138772;27;20552;-37
2023/05/13 01:52:27;;;;;;;11.65;10.50;;;10.80;99.90;;;;;;5145156;27;20486;-36
2023/05/13 01:54:52;;;;;;;12.23;10.98;;;10.70;99.90;;;;;;5167452;27;20031;-37
2023/05/13 01:57:18;;;;;;;12.65;10.43;;;10.70;99.90;;;;;;5165016;27;20069;-39
2023/05/13 01:59:44;;;;;;;13.07;10.85;;;10.60;99.90;;;;;;5151444;27;20034;-37
2023/05/13 02:02:10;;;;;;;11.40;10.25;;;10.60;99.90;;;;;;5142015;27;20042;-35
2023/05/13 02:04:35;;;;;;;14.40;11.35;;;10.60;99.90;;;;;;5145579;27;20041;-37
2023/05/13 02:07:01;;;;;;;10.60;9.60;;;10.60;99.90;;;;;;5149292;27;20509;-39
2023/05/13 02:09:27;;;;;;;13.65;11.23;;;10.60;99.90;;;;;;5145147;27;20098;-35
2023/05/13 02:11:53;;;;;;;12.13;10.98;;;10.50;99.90;;;;;;5148899;27;20034;-40
2023/05/13 02:14:19;;;;;;;11.48;10.45;;;10.50;99.90;;;;;;5164343;27;20119;-37
2023/05/13 02:16:45;;;;;;;13.38;12.00;;;10.50;99.90;;;;;;5142847;27;20038;-37
2023/05/13 02:19:10;;;;;;;13.23;11.85;;;10.40;99.90;;;;;;5153691;27;20499;-36
2023/05/13 02:21:36;;;;;;;13.65;12.27;;;10.40;99.90;;;;;;5145921;27;20061;-36
2023/05/13 02:24:02;;;;;;;12.13;10.95;;;10.40;99.90;;;;;;5148636;27;20492;-37
2023/05/13 02:26:28;;;;;;;12.38;11.15;;;10.40;99.90;;;;;;5149444;27;20026;-38
2023/05/13 02:28:54;;;;;;;12.27;11.05;;;10.30;99.90;;;;;;5140585;27;20041;-36
2023/05/13 02:31:19;;;;;;;12.50;11.20;;;10.30;99.90;;;;;;5149902;27;20062;-35
2023/05/13 02:33:45;;;;;;;12.13;10.95;;;10.30;99.90;;;;;;5149752;27;20034;-38
2023/05/13 02:36:11;;;;;;;12.20;11.10;;;10.20;99.90;;;;;;5144428;27;20034;-37
2023/05/13 02:38:37;;;;;;;12.52;11.23;;;10.20;99.90;;;;;;5151422;27;20038;-38
2023/05/13 02:41:02;;;;;;;11.75;10.68;;;10.20;99.90;;;;;;5144422;27;20034;-39
2023/05/13 02:43:28;;;;;;;13.43;12.02;;;10.10;99.90;;;;;;5138914;27;20035;-36
2023/05/13 02:45:57;;;;;;;14.65;12.13;;;10.10;99.90;;;;;;5127436;27;20035;-37
2023/05/13 02:48:23;;;;;;;12.68;11.48;;;10.00;99.90;;;;;;5145301;27;20038;-36
2023/05/13 02:50:49;;;;;;;13.43;12.07;;;10.10;99.90;;;;;;5140258;27;20496;-36
2023/05/13 02:53:14;;;;;;;12.88;11.57;;;10.00;99.90;;;;;;5144152;27;20073;-37
2023/05/13 02:55:40;;;;;;;14.45;12.77;;;10.00;99.90;;;;;;5152772;27;20045;-35
2023/05/13 02:58:08;;;;;;;14.13;12.70;;;10.00;99.90;;;;;;5147816;27;20039;-36
2023/05/13 03:00:33;;;;;;;13.45;12.05;;;10.00;99.90;;;;;;5155347;27;20069;-37
2023/05/13 03:02:59;;;;;;;13.63;12.32;;;9.90;99.90;;;;;;5156154;27;20571;-37
2023/05/13 03:05:25;;;;;;;12.80;11.50;;;9.90;99.90;;;;;;5153181;27;20038;-38
2023/05/13 03:07:51;;;;;;;13.70;12.25;;;9.90;99.90;;;;;;5148221;27;20400;-36
2023/05/13 03:10:16;;;;;;;12.70;11.50;;;9.90;99.90;;;;;;5122035;27;20042;-38
2023/05/13 03:12:42;;;;;;;14.73;12.60;;;9.80;99.90;;;;;;5150581;27;20461;-39
2023/05/13 03:15:09;;;;;;;14.57;12.90;;;9.80;99.90;;;;;;5145244;27;20078;-38
2023/05/13 03:17:35;;;;;;;14.68;12.77;;;9.80;99.90;;;;;;5148444;27;20027;-38
2023/05/13 03:20:00;;;;;;;14.18;12.68;;;9.80;99.90;;;;;;5152718;27;20037;-39
2023/05/13 03:22:26;;;;;;;14.07;12.35;;;9.70;99.90;;;;;;5143115;27;20099;-37
2023/05/13 03:24:52;;;;;;;16.30;13.23;;;9.70;99.90;;;;;;5148797;27;20046;-36
2023/05/13 03:27:18;;;;;;;14.40;12.85;;;9.70;99.90;;;;;;5147525;27;20034;-39
2023/05/13 03:29:43;;;;;;;15.23;13.60;;;9.70;99.90;;;;;;5137763;27;20453;-36
2023/05/13 03:32:09;;;;;;;14.25;12.68;;;9.70;99.90;;;;;;5146853;27;20043;-37
2023/05/13 03:34:36;;;;;;;14.70;13.20;;;9.60;99.90;;;;;;5150946;27;20031;-38
2023/05/13 03:37:02;;;;;;;15.30;13.80;;;9.70;99.90;;;;;;5145323;27;20510;-38
2023/05/13 03:39:28;;;;;;;15.75;13.70;;;9.60;99.90;;;;;;5147787;27;20052;-39
2023/05/13 03:41:54;;;;;;;14.90;13.50;;;9.60;99.90;;;;;;5143916;27;20034;-37
2023/05/13 03:44:20;;;;;;;15.13;13.55;;;9.60;99.90;;;;;;5146791;27;20038;-36
2023/05/13 03:46:46;;;;;;;17.60;14.10;;;9.60;99.90;;;;;;5147174;27;20038;-39
2023/05/13 03:49:11;;;;;;;16.20;13.82;;;9.60;99.90;;;;;;5146756;27;20061;-37
2023/05/13 03:51:37;;;;;;;14.75;13.02;;;9.60;99.90;;;;;;5147180;27;20038;-36
2023/05/13 03:54:03;;;;;;;15.93;14.18;;;9.60;99.90;;;;;;5142857;27;20042;-37
2023/05/13 03:56:28;;;;;;;15.10;13.55;;;9.60;99.90;;;;;;5138917;27;20530;-36
2023/05/13 03:58:54;;;;;;;16.17;14.43;;;9.60;99.90;;;;;;5141746;27;20038;-37
2023/05/13 04:01:20;;;;;;;15.48;13.88;;;9.60;99.90;;;;;;5138432;27;20094;-36
2023/05/13 04:03:46;;;;;;;15.60;14.00;;;9.60;99.90;;;;;;5149498;27;20069;-36
2023/05/13 04:06:15;;;;;;;16.50;14.82;;;9.50;99.90;;;;;;5134347;27;20135;-36
2023/05/13 04:08:41;;;;;;;15.07;13.55;;;9.50;99.90;;;;;;5143137;27;20480;-37
2023/05/13 04:11:06;;;;;;;16.70;15.10;;;9.50;99.90;;;;;;5151252;27;20038;-37
2023/05/13 04:13:34;;;;;;;16.60;13.93;;;9.50;99.90;;;;;;5145385;27;20027;-38
2023/05/13 04:16:00;;;;;;;17.50;15.73;;;9.50;99.90;;;;;;5143152;27;20091;-38
2023/05/13 04:18:28;;;;;;;16.52;14.82;;;9.50;99.90;;;;;;5144412;27;20479;-38
2023/05/13 04:20:54;;;;;;;16.77;14.85;;;9.60;99.90;;;;;;5142704;27;20031;-35
2023/05/13 04:23:19;;;;;;;15.73;14.23;;;9.60;99.90;;;;;;5138418;27;20121;-37
2023/05/13 04:25:52;;;;;;;17.58;15.73;;;9.60;99.90;;;;;;5173976;27;20034;-38
2023/05/13 04:28:19;;;;;;;18.70;15.77;;;9.60;99.90;;;;;;5143109;27;20038;-36
2023/05/13 04:30:45;;;;;;;16.98;15.13;;;9.70;99.90;;;;;;5154890;27;20049;-36
2023/05/13 04:33:10;;;;;;;18.05;15.43;;;9.70;99.90;;;;;;5149228;27;20125;-36
2023/05/13 04:35:36;;;;;;;18.95;17.05;;;9.70;99.90;;;;;;5170032;27;20030;-36
2023/05/13 04:38:04;;;;;;;18.30;15.77;;;9.70;99.90;;;;;;5142780;27;20094;-35
2023/05/13 04:40:29;;;;;;;18.55;16.40;;;9.80;99.90;;;;;;5151003;27;20034;-38
2023/05/13 04:42:55;;;;;;;16.92;15.05;;;9.80;99.90;;;;;;5144804;27;20377;-37
2023/05/13 04:45:21;;;;;;;18.35;16.48;;;9.80;99.90;;;;;;5152068;27;20030;-36
2023/05/13 04:47:47;;;;;;;17.90;15.90;;;9.80;99.90;;;;;;5146079;27;20129;-36
2023/05/13 04:50:13;;;;;;;18.50;16.67;;;9.90;99.90;;;;;;5153688;27;20038;-38
2023/05/13 04:52:41;;;;;;;18.23;16.30;;;9.90;99.90;;;;;;5155100;27;20051;-36
2023/05/13 04:55:08;;;;;;;18.10;16.17;;;9.90;99.90;;;;;;5153497;27;20041;-36
2023/05/13 04:57:34;;;;;;;18.58;16.48;;;10.00;99.90;;;;;;5154879;27;20026;-37
2023/05/13 05:00:01;;;;;;;20.38;18.25;;;10.00;99.90;;;;;;5152706;27;20106;-36
2023/05/13 05:02:28;;;;;;;20.13;17.85;;;10.10;99.90;;;;;;5145549;27;20132;-36
2023/05/13 05:04:55;;;;;;;22.08;19.73;;;10.10;99.90;;;;;;5152767;27;20512;-36
2023/05/13 05:07:21;;;;;;;21.75;19.45;;;10.20;99.90;;;;;;5151806;27;20086;-36
2023/05/13 05:09:46;;;;;;;22.63;19.83;;;10.20;99.90;;;;;;5156491;27;20042;-36
2023/05/13 05:12:12;;;;;;;23.00;20.67;;;10.30;99.90;;;;;;5156529;27;20044;-39
2023/05/13 05:14:38;;;;;;;24.98;20.77;;;10.30;99.90;;;;;;5148653;27;20041;-36
2023/05/13 05:17:04;;;;;;;22.45;20.00;;;10.40;99.90;;;;;;5155871;27;20030;-38
2023/05/13 05:19:29;;;;;;;23.73;20.88;;;10.40;99.90;;;;;;5151900;27;20037;-37
2023/05/13 05:21:55;;;;;;;25.48;22.67;;;10.50;99.90;;;;;;5146526;27;20496;-36
2023/05/13 05:24:21;;;;;;;23.48;21.08;;;10.50;99.90;;;;;;5146832;27;20031;-39
2023/05/13 05:26:47;;;;;;;24.95;22.30;;;10.60;99.90;;;;;;5155200;27;20045;-40
2023/05/13 05:29:12;;;;;;;25.20;22.10;;;10.70;99.90;;;;;;5149483;27;20102;-36
2023/05/13 05:31:38;;;;;;;25.20;22.13;;;10.80;99.90;;;;;;5156157;27;20030;-36
2023/05/13 05:34:04;;;;;;;23.45;20.92;;;10.80;99.90;;;;;;5148948;27;20042;-36
2023/05/13 05:36:30;;;;;;;24.83;21.60;;;10.90;99.90;;;;;;5157434;27;20030;-37
2023/05/13 05:38:56;;;;;;;23.67;21.20;;;11.00;99.90;;;;;;5146467;27;20037;-37
2023/05/13 05:41:21;;;;;;;23.83;21.25;;;11.00;99.90;;;;;;5149302;27;20520;-38
2023/05/13 05:43:47;;;;;;;22.65;20.33;;;11.10;99.90;;;;;;5152811;27;20034;-36
2023/05/13 05:46:13;;;;;;;23.80;20.85;;;11.10;99.90;;;;;;5149026;27;20034;-36
2023/05/13 05:48:39;;;;;;;25.23;21.73;;;11.20;99.90;;;;;;5137650;27;20038;-36
2023/05/13 05:51:05;;;;;;;23.13;20.60;;;11.30;99.90;;;;;;5157373;27;20088;-36
2023/05/13 05:53:31;;;;;;;23.17;20.20;;;11.40;99.90;;;;;;5147727;27;20484;-37
2023/05/13 05:55:57;;;;;;;22.85;20.42;;;11.50;99.90;;;;;;5142256;27;20092;-37
2023/05/13 05:58:25;;;;;;;23.25;19.70;;;11.60;99.90;;;;;;5148567;27;20042;-37
2023/05/13 06:00:53;;;;;;;20.90;18.75;;;11.70;99.90;;;;;;5167108;27;20038;-35
2023/05/13 06:03:20;;;;;;;20.38;18.25;;;11.80;99.90;;;;;;5145411;27;20030;-37
2023/05/13 06:05:46;;;;;;;22.70;18.55;;;11.90;99.90;;;;;;5145340;27;20103;-38
2023/05/13 06:08:11;;;;;;;20.10;17.58;;;12.00;99.90;;;;;;5145792;27;20023;-35
2023/05/13 06:10:37;;;;;;;21.02;18.83;;;12.10;99.90;;;;;;5146284;27;20045;-36
2023/05/13 06:13:03;;;;;;;19.17;17.23;;;12.20;99.90;;;;;;5146216;27;20045;-38
2023/05/13 06:15:29;;;;;;;20.23;18.13;;;12.30;99.90;;;;;;5146612;27;20027;-36
2023/05/13 06:17:55;;;;;;;19.70;17.55;;;12.50;99.90;;;;;;5145862;27;20048;-35
2023/05/13 06:20:21;;;;;;;20.55;17.20;;;12.60;99.90;;;;;;5148115;27;20110;-37
2023/05/13 06:22:47;;;;;;;18.88;16.90;;;12.70;99.90;;;;;;5162135;27;20145;-36
2023/05/13 06:25:13;;;;;;;19.80;16.98;;;12.90;99.90;;;;;;5130203;27;20113;-37
2023/05/13 06:27:39;;;;;;;17.85;16.13;;;13.00;99.90;;;;;;5164760;27;20048;-39
2023/05/13 06:30:05;;;;;;;17.98;16.23;;;13.10;99.90;;;;;;5146472;27;20109;-37
2023/05/13 06:32:31;;;;;;;17.65;15.63;;;13.30;99.90;;;;;;5144502;27;20034;-36
2023/05/13 06:34:57;;;;;;;16.45;14.68;;;13.40;99.90;;;;;;5151008;27;20094;-36
2023/05/13 06:37:23;;;;;;;16.23;14.52;;;13.50;99.90;;;;;;5130900;27;20030;-37
2023/05/13 06:39:49;;;;;;;14.63;13.10;;;13.60;99.90;;;;;;5148166;27;20038;-40
2023/05/13 06:42:14;;;;;;;15.05;13.60;;;13.70;99.90;;;;;;5146283;27;20038;-38
2023/05/13 06:44:40;;;;;;;15.45;13.82;;;13.80;99.90;;;;;;5130848;27;20103;-37
2023/05/13 06:47:09;;;;;;;14.75;12.98;;;13.80;99.90;;;;;;5146519;27;20514;-36
2023/05/13 06:49:35;;;;;;;13.85;12.45;;;13.90;99.90;;;;;;5144388;27;20037;-37
2023/05/13 06:52:01;;;;;;;13.60;11.82;;;13.80;99.90;;;;;;5143060;27;20117;-37
2023/05/13 06:54:27;;;;;;;13.63;12.25;;;13.80;99.90;;;;;;5149677;27;20484;-36
2023/05/13 06:56:53;;;;;;;15.40;13.88;;;13.80;99.90;;;;;;5145957;27;20079;-38
2023/05/13 06:59:20;;;;;;;14.02;12.57;;;13.90;99.90;;;;;;5165189;27;20044;-37
2023/05/13 07:01:46;;;;;;;13.98;12.57;;;14.00;99.90;;;;;;5151600;27;20038;-37
2023/05/13 07:04:12;;;;;;;13.82;12.38;;;14.10;99.90;;;;;;5142398;27;20057;-39
2023/05/13 07:06:37;;;;;;;14.32;12.93;;;14.30;99.90;;;;;;5151196;27;20050;-39
2023/05/13 07:09:03;;;;;;;12.98;11.43;;;14.40;99.90;;;;;;5150291;27;20245;-36
2023/05/13 07:11:29;;;;;;;12.88;11.77;;;14.50;99.90;;;;;;5144122;27;20120;-38
2023/05/13 07:13:55;;;;;;;13.88;11.98;;;14.70;99.90;;;;;;5147100;27;20030;-37
2023/05/13 07:16:20;;;;;;;13.63;11.82;;;14.80;99.90;;;;;;5140610;27;20030;-41
2023/05/13 07:18:46;;;;;;;13.55;12.23;;;15.00;99.90;;;;;;5151676;27;20034;-38
2023/05/13 07:21:15;;;;;;;13.13;11.75;;;15.10;99.90;;;;;;5150210;27;20387;-37
2023/05/13 07:23:41;;;;;;;12.93;11.73;;;15.20;99.90;;;;;;5143945;27;20430;-37
2023/05/13 07:26:07;;;;;;;12.60;11.30;;;15.40;99.90;;;;;;5144208;27;20037;-38
2023/05/13 07:28:32;;;;;;;11.77;10.65;;;15.50;99.90;;;;;;5143755;27;20038;-37
2023/05/13 07:30:58;;;;;;;13.52;12.13;;;15.80;99.90;;;;;;5135630;27;20623;-38
2023/05/13 07:33:24;;;;;;;13.43;12.00;;;15.90;99.90;;;;;;5150794;27;20026;-37
2023/05/13 07:35:50;;;;;;;13.18;11.82;;;16.10;99.90;;;;;;5146989;27;20030;-43
2023/05/13 07:38:15;;;;;;;12.77;11.43;;;16.30;99.90;;;;;;5153283;27;20034;-37
2023/05/13 07:40:41;;;;;;;12.82;11.52;;;16.40;99.90;;;;;;5141242;27;20030;-39
2023/05/13 07:43:08;;;;;;;12.65;11.45;;;16.60;99.90;;;;;;5134362;27;20543;-38
2023/05/13 07:45:34;;;;;;;11.98;10.45;;;16.70;99.90;;;;;;5142802;27;20109;-38
2023/05/13 07:47:59;;;;;;;12.60;10.50;;;17.00;99.90;;;;;;5148414;27;20126;-38
2023/05/13 07:50:25;;;;;;;14.02;9.98;;;17.20;99.90;;;;;;5140026;27;20452;-37
2023/05/13 07:52:51;;;;;;;12.27;10.55;;;17.40;99.90;;;;;;5152691;27;20079;-40
2023/05/13 07:55:17;;;;;;;10.50;9.38;;;17.50;99.90;;;;;;5138188;27;20516;-38
2023/05/13 07:57:43;;;;;;;11.02;9.88;;;17.60;99.90;;;;;;5143659;27;20079;-37
2023/05/13 08:00:09;;;;;;;10.90;9.60;;;17.80;99.90;;;;;;5145859;27;20117;-37
2023/05/13 08:02:37;;;;;;;12.20;10.13;;;18.00;99.90;;;;;;5154180;27;20047;-39
2023/05/13 08:05:04;;;;;;;9.52;8.60;;;18.20;99.90;;;;;;5145589;27;20479;-39
2023/05/13 08:07:30;;;;;;;10.18;9.07;;;18.40;99.90;;;;;;5150059;27;20470;-38
2023/05/13 08:09:55;;;;;;;8.77;7.90;;;18.50;99.90;;;;;;5145817;27;20042;-38
2023/05/13 08:12:21;;;;;;;9.57;8.73;;;18.70;99.90;;;;;;5140773;27;20122;-38
2023/05/13 08:14:47;;;;;;;8.02;7.32;;;18.90;99.90;;;;;;5166940;27;20038;-39
2023/05/13 08:17:12;;;;;;;9.93;8.93;;;19.00;99.90;;;;;;5140876;27;20536;-37
2023/05/13 08:19:39;;;;;;;11.07;8.68;;;19.10;99.90;;;;;;5144274;27;20057;-36
2023/05/13 08:22:05;;;;;;;8.38;7.63;;;19.30;99.90;;;;;;5141544;27;20026;-40
2023/05/13 08:24:31;;;;;;;8.15;7.43;;;19.40;99.90;;;;;;5147052;27;20452;-37
2023/05/13 08:26:57;;;;;;;12.52;7.50;;;19.60;99.90;;;;;;5146739;27;20078;-37
2023/05/13 08:29:22;;;;;;;8.70;7.80;;;19.80;99.90;;;;;;5134642;27;20415;-37
2023/05/13 08:31:49;;;;;;;11.32;7.65;;;20.00;99.90;;;;;;5150689;27;20034;-36
2023/05/13 08:34:15;;;;;;;7.88;7.07;;;20.20;99.90;;;;;;5139364;27;20422;-39
2023/05/13 08:36:41;;;;;;;9.85;7.68;;;20.40;99.90;;;;;;5140905;27;20034;-40
2023/05/13 08:39:07;;;;;;;8.57;6.63;;;20.60;99.90;;;;;;5148723;27;20039;-37
2023/05/13 08:41:33;;;;;;;7.10;6.40;;;20.80;99.90;;;;;;5150053;27;20035;-36
2023/05/13 08:44:03;;;;;;;7.18;6.18;;;20.90;99.90;;;;;;5134987;27;20042;-35
2023/05/13 08:46:32;;;;;;;11.85;8.50;;;21.00;99.90;;;;;;5148894;27;20075;-37
2023/05/13 08:48:58;;;;;;;9.20;8.07;;;21.10;99.90;;;;;;5134897;27;20527;-33
2023/05/13 08:51:24;;;;;;;8.50;6.57;;;21.30;99.90;;;;;;5149447;27;20060;-36
2023/05/13 08:53:52;;;;;;;7.10;5.95;;;21.50;99.90;;;;;;5133127;27;20034;-37
2023/05/13 08:56:18;;;;;;;8.52;6.53;;;21.70;99.90;;;;;;5136409;27;20038;-35
2023/05/13 08:58:43;;;;;;;7.43;6.70;;;21.90;99.90;;;;;;5147494;27;20041;-36
2023/05/13 09:01:09;;;;;;;6.85;6.28;;;22.10;99.90;;;;;;5146068;27;20041;-37
2023/05/13 09:03:47;;;;;;;7.38;6.50;;;22.20;99.90;;;;;;5144305;27;20033;-39
2023/05/13 09:06:12;;;;;;;9.05;6.75;;;22.30;99.90;;;;;;5169768;27;20518;-36
2023/05/13 09:08:38;;;;;;;7.97;7.18;;;22.50;99.90;;;;;;5145721;27;20054;-37
2023/05/13 09:11:04;;;;;;;6.57;5.88;;;22.60;99.90;;;;;;5141630;27;20027;-37
2023/05/13 09:13:35;;;;;;;7.32;5.70;;;22.80;99.90;;;;;;5146020;27;20448;-36
2023/05/13 09:16:02;;;;;;;5.95;5.45;;;22.80;99.90;;;;;;5114295;27;20488;-36
2023/05/13 09:18:31;;;;;;;5.88;5.32;;;23.00;99.90;;;;;;5136772;27;20065;-34
2023/05/13 09:20:56;;;;;;;6.70;6.05;;;23.20;99.90;;;;;;5135719;27;20351;-36
2023/05/13 09:23:22;;;;;;;6.03;5.40;;;23.40;99.90;;;;;;5154023;27;20464;-39
2023/05/13 09:25:48;;;;;;;6.95;6.32;;;23.70;99.90;;;;;;5154858;27;20518;-37
2023/05/13 09:28:14;;;;;;;5.68;5.07;;;23.80;99.90;;;;;;5155355;27;20038;-39
2023/05/13 09:30:40;;;;;;;6.90;5.18;;;23.90;99.90;;;;;;5155980;27;20038;-36
2023/05/13 09:33:07;;;;;;;4.85;4.10;;;23.90;97.60;;;;;;5138894;27;20091;-37
2023/05/13 09:35:33;;;;;;;4.57;4.18;;;24.00;94.80;;;;;;5138555;27;20102;-36
2023/05/13 09:37:59;;;;;;;5.25;4.72;;;24.20;99.00;;;;;;5138282;27;20038;-38
2023/05/13 09:40:25;;;;;;;6.47;5.05;;;24.50;99.80;;;;;;5148198;27;20423;-39
2023/05/13 09:42:55;;;;;;;7.47;5.75;;;24.80;98.80;;;;;;5142581;27;20157;-39
2023/05/13 09:45:22;;;;;;;5.63;4.90;;;24.90;90.20;;;;;;5138568;27;20038;-39
2023/05/13 09:47:52;;;;;;;5.28;4.60;;;25.10;83.40;;;;;;5137826;27;20038;-37
2023/05/13 09:50:18;;;;;;;4.85;4.40;;;25.10;67.40;;;;;;5145658;27;20038;-36
2023/05/13 09:52:45;;;;;;;5.95;4.65;;;25.10;73.30;;;;;;5145027;27;20135;-37
2023/05/13 09:55:11;;;;;;;5.15;4.72;;;25.30;74.60;;;;;;5137812;27;20038;-36
2023/05/13 09:57:38;;;;;;;5.63;4.60;;;25.60;69.60;;;;;;5120586;27;20030;-37
2023/05/13 10:00:04;;;;;;;6.45;4.75;;;25.50;59.90;;;;;;5155810;27;20049;-40
2023/05/13 10:02:31;;;;;;;7.55;5.10;;;25.70;60.60;;;;;;5156285;27;20562;-37
2023/05/13 10:04:57;;;;;;;5.95;4.13;;;25.80;59.40;;;;;;5158680;27;20483;-38
2023/05/13 10:07:24;;;;;;;7.32;5.10;;;25.70;57.80;;;;;;5151492;27;20041;-38
2023/05/13 10:10:06;;;;;;;6.45;5.63;;;25.70;56.70;;;;;;5138776;27;20122;-36
2023/05/13 10:12:35;;;;;;;5.50;5.00;;;25.80;55.60;;;;;;5151245;27;20074;-38
2023/05/13 10:15:01;;;;;;;4.85;4.30;;;25.70;56.70;;;;;;5143844;27;20069;-36
2023/05/13 10:17:29;;;;;;;5.18;4.43;;;25.70;55.80;;;;;;5158237;27;20387;-37
2023/05/13 10:19:55;;;;;;;4.95;4.00;;;25.80;56.00;;;;;;5154319;27;20035;-38
2023/05/13 10:22:39;;;;;;;4.70;4.25;;;26.00;55.20;;;;;;5138545;27;20066;-38
2023/05/13 10:25:06;;;;;;;5.18;3.88;;;26.00;50.60;;;;;;5141298;27;20034;-38
2023/05/13 10:27:33;;;;;;;5.25;4.38;;;26.10;54.30;;;;;;5137491;27;20483;-36
2023/05/13 10:30:00;;;;;;;5.95;4.03;;;26.20;53.70;;;;;;5137291;27;20043;-35
2023/05/13 10:32:28;;;;;;;4.88;4.35;;;26.40;53.50;;;;;;5137276;27;20042;-38
2023/05/13 10:35:20;;;;;;;6.75;4.25;;;26.50;54.50;;;;;;5155881;27;20476;-36
2023/05/13 10:38:23;;;;;;;4.50;4.03;;;26.80;54.20;;;;;;5138477;27;20556;-38
2023/05/13 10:41:00;;;;;;;3.78;3.40;;;27.10;52.50;;;;;;5148799;27;20563;-39
2023/05/13 10:43:28;;;;;;;7.07;3.85;;;27.40;53.10;;;;;;5137352;27;20104;-39
2023/05/13 10:46:00;;;;;;;5.63;4.28;;;27.20;52.20;;;;;;5140241;27;20480;-37
2023/05/13 10:48:37;;;;;;;4.60;3.75;;;27.30;51.20;;;;;;5142375;27;20034;-39
2023/05/13 10:51:07;;;;;;;6.18;4.00;;;27.50;51.50;;;;;;5154245;27;20038;-38
2023/05/13 10:53:41;;;;;;;6.18;4.10;;;27.50;50.80;;;;;;5150709;27;20083;-37
2023/05/13 10:56:07;;;;;;;6.53;3.85;;;27.60;51.00;;;;;;5136745;27;20070;-37
2023/05/13 10:58:38;;;;;;;4.72;3.60;;;27.80;50.60;;;;;;5156199;27;20073;-38
2023/05/13 11:01:33;;;;;;;5.05;3.50;;;27.90;50.00;;;;;;5157814;27;20054;-37
2023/05/13 11:04:04;;;;;;;5.30;3.65;;;28.30;50.70;;;;;;5142050;27;20046;-37
2023/05/13 11:06:38;;;;;;;7.90;3.88;;;28.40;50.90;;;;;;5152941;27;20061;-36
2023/05/13 11:09:06;;;;;;;6.25;3.95;;;28.80;50.20;;;;;;5136636;27;20041;-35
2023/05/13 11:11:36;;;;;;;4.43;4.03;;;28.60;48.80;;;;;;5150868;27;20099;-37
2023/05/13 11:14:17;;;;;;;5.65;4.00;;;28.50;47.90;;;;;;5150932;27;20471;-38
2023/05/13 11:17:06;;;;;;;4.68;4.05;;;28.30;46.70;;;;;;5142214;27;20056;-39
2023/05/13 11:19:46;;;;;;;4.68;3.80;;;28.50;48.80;;;;;;5156801;27;20057;-38
2023/05/13 11:22:20;;;;;;;3.80;3.40;;;28.60;47.80;;;;;;5136563;27;20084;-39
2023/05/13 11:25:07;;;;;;;5.13;3.75;;;28.70;47.40;;;;;;5139089;27;20087;-38
2023/05/13 11:27:41;;;;;;;6.88;4.60;;;28.80;46.30;;;;;;5152601;27;20045;-39
2023/05/13 11:30:21;;;;;;;3.95;3.65;;;28.90;46.40;;;;;;5136244;27;20052;-38
2023/05/13 11:32:50;;;;;;;5.15;3.92;;;29.20;47.20;;;;;;5136165;27;20392;-38
2023/05/13 11:35:25;;;;;;;4.40;4.07;;;29.00;45.20;;;;;;5135845;27;20030;-37
2023/05/13 11:37:51;;;;;;;4.93;3.45;;;28.90;44.90;;;;;;5141655;27;20386;-37
2023/05/13 11:40:23;;;;;;;5.20;3.92;;;28.90;44.70;;;;;;5142943;27;20110;-38
2023/05/13 11:42:50;;;;;;;4.95;3.85;;;29.00;45.20;;;;;;5156423;27;20038;-39
2023/05/13 11:45:17;;;;;;;3.97;3.33;;;29.40;45.20;;;;;;5156779;27;20429;-40
2023/05/13 11:47:43;;;;;;;6.38;3.47;;;29.50;43.90;;;;;;5143692;27;20074;-38
2023/05/13 11:50:21;;;;;;;3.42;3.13;;;29.60;43.30;;;;;;5139336;27;20034;-38
2023/05/13 11:52:58;;;;;;;6.15;3.20;;;29.70;41.30;;;;;;5139686;27;20326;-38
2023/05/13 11:55:31;;;;;;;5.45;3.60;;;29.70;42.80;;;;;;5140798;27;20022;-37
2023/05/13 11:57:58;;;;;;;7.72;3.58;;;29.80;42.60;;;;;;5147052;27;20038;-36
2023/05/13 12:00:27;;;;;;;5.63;2.95;;;29.70;41.80;;;;;;5148756;27;20395;-38
2023/05/13 12:02:54;;;;;;;6.70;3.97;;;30.00;42.00;;;;;;5141155;27;20369;-39
2023/05/13 12:05:20;;;;;;;6.43;4.00;;;30.10;41.40;;;;;;5154710;27;20062;-38
2023/05/13 12:07:47;;;;;;;20.80;19.33;;;30.40;42.70;;;;;;5143561;27;20122;-38
2023/05/13 12:10:13;;;;;;;5.28;4.75;;;30.70;41.20;;;;;;5135404;27;20064;-37
2023/05/13 12:12:41;;;;;;;8.52;7.47;;;30.60;41.10;;;;;;5135452;27;20460;-38
2023/05/13 12:15:18;;;;;;;18.77;16.92;;;30.60;41.10;;;;;;5135529;27;20047;-38
2023/05/13 12:17:45;;;;;;;6.40;3.35;;;30.70;41.60;;;;;;5141644;27;20095;-40
2023/05/13 12:20:21;;;;;;;6.65;5.90;;;30.60;41.40;;;;;;5135401;27;20043;-39
2023/05/13 12:22:47;;;;;;;4.97;4.55;;;30.70;41.10;;;;;;5134958;27;20034;-40
2023/05/13 12:25:35;;;;;;;7.22;3.78;;;30.10;40.80;;;;;;5137802;27;20038;-38
2023/05/13 12:28:23;;;;;;;71.40;55.53;;;30.30;41.00;;;;;;5155836;27;20026;-38
2023/05/13 12:31:03;;;;;;;6.60;5.68;;;30.30;40.60;;;;;;5140843;27;20399;-37
2023/05/13 12:33:42;;;;;;;9.23;7.88;;;30.40;38.30;;;;;;5154126;27;20061;-43
2023/05/13 12:36:19;;;;;;;14.38;12.98;;;30.50;41.20;;;;;;5148688;27;20042;-40
2023/05/13 12:38:58;;;;;;;4.35;3.47;;;30.90;40.30;;;;;;5134646;27;20038;-37